createdAt,value
2017-05-31T00:00:38.717Z,17.1
2017-05-31T00:01:38.388Z,17.09
2017-05-31T00:02:38.672Z,17.07
2017-05-31T00:03:38.655Z,17.05
2017-05-31T00:04:38.632Z,17.02
2017-05-31T00:05:38.611Z,17.05
2017-05-31T00:06:38.605Z,17.03
2017-05-31T00:07:38.576Z,16.99
2017-05-31T00:08:38.552Z,17.02
2017-05-31T00:09:38.536Z,16.96
2017-05-31T00:10:38.509Z,17
2017-05-31T00:11:38.497Z,16.95
2017-05-31T00:12:38.532Z,16.91
2017-05-31T00:13:38.447Z,16.96
2017-05-31T00:14:38.430Z,16.9
2017-05-31T00:15:38.416Z,16.9
2017-05-31T00:16:38.392Z,16.81
2017-05-31T00:17:38.370Z,16.85
2017-05-31T00:18:38.357Z,16.81
2017-05-31T00:19:38.381Z,16.9
2017-05-31T00:20:38.315Z,16.77
2017-05-31T00:21:38.291Z,16.72
2017-05-31T00:22:38.269Z,16.69
2017-05-31T00:23:38.257Z,16.77
2017-05-31T00:24:38.228Z,16.69
2017-05-31T00:25:38.223Z,16.69
2017-05-31T00:26:38.187Z,16.67
2017-05-31T00:27:38.178Z,16.66
2017-05-31T00:28:38.147Z,16.75
2017-05-31T00:29:38.134Z,16.7
2017-05-31T00:30:38.112Z,16.65
2017-05-31T00:31:38.138Z,16.65
2017-05-31T00:32:38.125Z,16.63
2017-05-31T00:33:38.051Z,16.65
2017-05-31T00:34:38.027Z,16.67
2017-05-31T00:35:38.012Z,16.67
2017-05-31T00:36:37.985Z,16.65
2017-05-31T00:37:37.971Z,16.65
2017-05-31T00:38:37.948Z,16.7
2017-05-31T00:39:37.928Z,16.69
2017-05-31T00:40:37.906Z,16.62
2017-05-31T00:41:37.891Z,16.65
2017-05-31T00:42:37.866Z,16.63
2017-05-31T00:43:37.845Z,16.63
2017-05-31T00:44:37.829Z,16.65
2017-05-31T00:45:37.808Z,16.63
2017-05-31T00:46:37.789Z,16.6
2017-05-31T00:47:37.467Z,16.63
2017-05-31T00:48:37.749Z,16.57
2017-05-31T00:49:37.729Z,16.59
2017-05-31T00:50:37.710Z,16.54
2017-05-31T00:51:37.735Z,16.51
2017-05-31T00:52:37.678Z,16.44
2017-05-31T00:53:37.642Z,16.44
2017-05-31T00:54:37.633Z,16.47
2017-05-31T00:55:37.612Z,16.41
2017-05-31T00:56:37.588Z,16.44
2017-05-31T00:57:37.567Z,16.33
2017-05-31T00:58:37.545Z,16.3
2017-05-31T00:59:37.525Z,16.44
2017-05-31T01:00:37.500Z,16.34
2017-05-31T01:01:37.489Z,16.4
2017-05-31T01:02:37.468Z,16.32
2017-05-31T01:03:37.442Z,16.34
2017-05-31T01:04:37.429Z,16.36
2017-05-31T01:05:37.405Z,16.36
2017-05-31T01:06:37.381Z,16.3
2017-05-31T01:07:37.365Z,16.25
2017-05-31T01:08:37.348Z,16.3
2017-05-31T01:09:37.319Z,16.18
2017-05-31T01:10:37.296Z,16.23
2017-05-31T01:11:37.280Z,16.17
2017-05-31T01:12:37.262Z,16.26
2017-05-31T01:13:36.952Z,16.13
2017-05-31T01:14:37.223Z,16.26
2017-05-31T01:15:37.203Z,16.16
2017-05-31T01:16:37.179Z,16.17
2017-05-31T01:17:37.167Z,16.1
2017-05-31T01:18:37.140Z,16.07
2017-05-31T01:19:37.119Z,16.08
2017-05-31T01:20:37.108Z,16.08
2017-05-31T01:21:37.080Z,16.16
2017-05-31T01:22:37.070Z,16.08
2017-05-31T01:23:37.040Z,16.14
2017-05-31T01:24:37.018Z,16.13
2017-05-31T01:25:36.995Z,16.07
2017-05-31T01:26:36.985Z,16.1
2017-05-31T01:27:36.963Z,16.13
2017-05-31T01:28:36.964Z,16.14
2017-05-31T01:29:36.630Z,16.13
2017-05-31T01:30:36.596Z,16.07
2017-05-31T01:31:36.874Z,15.99
2017-05-31T01:32:36.859Z,16.04
2017-05-31T01:33:36.834Z,15.99
2017-05-31T01:34:36.806Z,15.93
2017-05-31T01:35:36.793Z,15.96
2017-05-31T01:36:36.768Z,15.93
2017-05-31T01:37:36.757Z,15.86
2017-05-31T01:38:36.737Z,15.96
2017-05-31T01:39:36.719Z,15.92
2017-05-31T01:40:36.696Z,15.89
2017-05-31T01:41:36.676Z,15.88
2017-05-31T01:42:36.652Z,15.91
2017-05-31T01:43:36.637Z,15.88
2017-05-31T01:44:36.610Z,15.88
2017-05-31T01:45:36.595Z,15.96
2017-05-31T01:46:36.570Z,15.95
2017-05-31T01:47:36.545Z,15.91
2017-05-31T01:48:36.227Z,15.86
2017-05-31T01:49:36.511Z,15.95
2017-05-31T01:50:36.499Z,15.88
2017-05-31T01:51:36.465Z,16.04
2017-05-31T01:52:36.450Z,15.91
2017-05-31T01:53:36.424Z,15.89
2017-05-31T01:54:36.406Z,15.88
2017-05-31T01:55:36.383Z,15.77
2017-05-31T01:56:36.066Z,15.78
2017-05-31T01:57:36.346Z,15.77
2017-05-31T01:58:36.329Z,15.71
2017-05-31T01:59:36.306Z,15.73
2017-05-31T02:00:36.279Z,15.64
2017-05-31T02:01:36.263Z,15.71
2017-05-31T02:02:36.241Z,15.67
2017-05-31T02:03:36.221Z,15.73
2017-05-31T02:04:36.206Z,15.68
2017-05-31T02:05:35.880Z,15.64
2017-05-31T02:06:36.159Z,15.58
2017-05-31T02:07:36.147Z,15.67
2017-05-31T02:08:35.843Z,15.66
2017-05-31T02:09:36.100Z,15.62
2017-05-31T02:10:35.477Z,15.67
2017-05-31T02:11:36.058Z,15.62
2017-05-31T02:12:36.034Z,15.64
2017-05-31T02:13:36.015Z,15.62
2017-05-31T02:14:35.993Z,15.59
2017-05-31T02:15:35.975Z,15.55
2017-05-31T02:16:35.959Z,15.55
2017-05-31T02:17:35.937Z,15.56
2017-05-31T02:18:35.921Z,15.55
2017-05-31T02:19:35.592Z,15.53
2017-05-31T02:20:35.881Z,15.62
2017-05-31T02:21:35.558Z,15.49
2017-05-31T02:22:35.830Z,15.6
2017-05-31T02:23:35.806Z,15.6
2017-05-31T02:24:35.784Z,15.6
2017-05-31T02:25:36.018Z,15.64
2017-05-31T02:26:35.799Z,15.68
2017-05-31T02:27:35.727Z,15.55
2017-05-31T02:28:35.419Z,15.62
2017-05-31T02:29:35.683Z,15.7
2017-05-31T02:30:35.372Z,15.66
2017-05-31T02:31:35.650Z,15.59
2017-05-31T02:32:35.629Z,15.66
2017-05-31T02:33:35.605Z,15.52
2017-05-31T02:34:35.587Z,15.55
2017-05-31T02:35:35.567Z,15.59
2017-05-31T02:36:35.548Z,15.49
2017-05-31T02:37:35.518Z,15.55
2017-05-31T02:38:35.507Z,15.51
2017-05-31T02:39:35.481Z,15.51
2017-05-31T02:40:35.469Z,15.4
2017-05-31T02:41:35.449Z,15.41
2017-05-31T02:42:35.420Z,15.4
2017-05-31T02:43:35.101Z,15.38
2017-05-31T02:44:35.377Z,15.53
2017-05-31T02:45:35.408Z,15.51
2017-05-31T02:46:35.345Z,15.49
2017-05-31T02:47:35.332Z,15.55
2017-05-31T02:48:34.999Z,15.51
2017-05-31T02:49:35.278Z,15.59
2017-05-31T02:50:35.258Z,15.62
2017-05-31T02:51:35.237Z,15.64
2017-05-31T02:52:35.216Z,15.67
2017-05-31T02:53:34.888Z,15.6
2017-05-31T02:54:35.179Z,15.73
2017-05-31T02:55:35.152Z,15.73
2017-05-31T02:56:35.139Z,15.7
2017-05-31T02:57:35.117Z,15.78
2017-05-31T02:58:35.094Z,15.73
2017-05-31T02:59:35.073Z,15.77
2017-05-31T03:00:35.046Z,15.78
2017-05-31T03:01:35.030Z,15.76
2017-05-31T03:02:35.007Z,15.8
2017-05-31T03:03:34.988Z,15.77
2017-05-31T03:04:34.967Z,15.77
2017-05-31T03:05:34.945Z,15.74
2017-05-31T03:06:34.936Z,15.8
2017-05-31T03:07:34.900Z,15.74
2017-05-31T03:08:34.886Z,15.76
2017-05-31T03:09:34.872Z,15.71
2017-05-31T03:10:34.848Z,15.71
2017-05-31T03:11:34.834Z,15.71
2017-05-31T03:12:34.807Z,15.64
2017-05-31T03:13:34.794Z,15.66
2017-05-31T03:14:34.760Z,15.67
2017-05-31T03:15:34.745Z,15.64
2017-05-31T03:16:34.727Z,15.68
2017-05-31T03:17:34.721Z,15.66
2017-05-31T03:18:34.746Z,15.66
2017-05-31T03:19:34.667Z,15.6
2017-05-31T03:20:34.639Z,15.58
2017-05-31T03:21:34.616Z,15.66
2017-05-31T03:22:34.600Z,15.66
2017-05-31T03:23:34.576Z,15.64
2017-05-31T03:24:34.556Z,15.6
2017-05-31T03:25:34.583Z,15.66
2017-05-31T03:26:34.518Z,15.66
2017-05-31T03:27:34.495Z,15.6
2017-05-31T03:28:34.482Z,15.56
2017-05-31T03:29:34.505Z,15.71
2017-05-31T03:30:34.430Z,15.66
2017-05-31T03:31:34.416Z,15.56
2017-05-31T03:32:34.402Z,15.64
2017-05-31T03:33:34.381Z,15.56
2017-05-31T03:34:34.055Z,15.52
2017-05-31T03:35:34.381Z,15.56
2017-05-31T03:36:34.401Z,15.6
2017-05-31T03:37:34.301Z,15.56
2017-05-31T03:38:33.977Z,15.68
2017-05-31T03:39:34.258Z,15.6
2017-05-31T03:40:34.235Z,15.56
2017-05-31T03:41:34.210Z,15.52
2017-05-31T03:42:34.189Z,15.58
2017-05-31T03:43:34.226Z,15.62
2017-05-31T03:44:34.146Z,15.66
2017-05-31T03:45:34.127Z,15.66
2017-05-31T03:46:34.108Z,15.53
2017-05-31T03:47:34.085Z,15.56
2017-05-31T03:48:34.069Z,15.49
2017-05-31T03:49:34.098Z,15.46
2017-05-31T03:50:34.033Z,15.55
2017-05-31T03:51:34.004Z,15.52
2017-05-31T03:52:33.987Z,15.52
2017-05-31T03:53:34.014Z,15.49
2017-05-31T03:54:33.946Z,15.56
2017-05-31T03:55:33.971Z,15.53
2017-05-31T03:56:33.904Z,15.44
2017-05-31T03:57:33.931Z,15.58
2017-05-31T03:58:33.561Z,15.58
2017-05-31T03:59:33.841Z,15.52
2017-05-31T04:00:33.818Z,15.48
2017-05-31T04:01:33.804Z,15.59
2017-05-31T04:02:33.478Z,15.56
2017-05-31T04:03:33.753Z,15.64
2017-05-31T04:04:33.732Z,15.62
2017-05-31T04:05:33.715Z,15.68
2017-05-31T04:06:33.762Z,15.68
2017-05-31T04:07:33.681Z,15.64
2017-05-31T04:08:33.659Z,15.66
2017-05-31T04:09:33.634Z,15.59
2017-05-31T04:10:33.671Z,15.62
2017-05-31T04:11:33.596Z,15.62
2017-05-31T04:12:33.572Z,15.55
2017-05-31T04:13:33.553Z,15.49
2017-05-31T04:14:33.531Z,15.58
2017-05-31T04:15:33.569Z,15.55
2017-05-31T04:16:33.501Z,15.55
2017-05-31T04:17:33.478Z,15.55
2017-05-31T04:18:33.453Z,15.59
2017-05-31T04:19:33.424Z,15.49
2017-05-31T04:20:33.463Z,15.58
2017-05-31T04:21:33.395Z,15.52
2017-05-31T04:22:33.383Z,15.55
2017-05-31T04:23:33.346Z,15.51
2017-05-31T04:24:33.353Z,15.49
2017-05-31T04:25:33.304Z,15.52
2017-05-31T04:26:33.292Z,15.51
2017-05-31T04:27:33.266Z,15.6
2017-05-31T04:28:33.246Z,15.53
2017-05-31T04:29:32.924Z,15.49
2017-05-31T04:30:33.208Z,15.49
2017-05-31T04:31:33.185Z,15.6
2017-05-31T04:32:33.163Z,15.56
2017-05-31T04:33:33.143Z,15.7
2017-05-31T04:34:33.123Z,15.76
2017-05-31T04:35:33.103Z,15.86
2017-05-31T04:36:33.076Z,16.01
2017-05-31T04:37:33.063Z,15.96
2017-05-31T04:38:33.047Z,16.14
2017-05-31T04:39:33.070Z,16.3
2017-05-31T04:40:33.068Z,16.52
2017-05-31T04:41:32.984Z,16.65
2017-05-31T04:42:33.015Z,16.75
2017-05-31T04:43:32.644Z,16.91
2017-05-31T04:44:32.924Z,17.1
2017-05-31T04:45:32.902Z,17.3
2017-05-31T04:46:32.885Z,17.46
2017-05-31T04:47:32.861Z,17.6
2017-05-31T04:48:32.848Z,17.73
2017-05-31T04:49:32.543Z,17.77
2017-05-31T04:50:32.803Z,17.84
2017-05-31T04:51:32.839Z,17.98
2017-05-31T04:52:32.818Z,18.21
2017-05-31T04:53:32.743Z,18.38
2017-05-31T04:54:32.734Z,18.57
2017-05-31T04:55:32.707Z,18.57
2017-05-31T04:56:32.745Z,18.71
2017-05-31T04:57:32.674Z,18.79
2017-05-31T04:58:32.417Z,19.01
2017-05-31T04:59:32.641Z,19.1
2017-05-31T05:00:32.662Z,19.23
2017-05-31T05:01:32.303Z,19.3
2017-05-31T05:02:32.586Z,19.4
2017-05-31T05:03:32.561Z,19.55
2017-05-31T05:04:32.543Z,19.68
2017-05-31T05:05:32.530Z,19.79
2017-05-31T05:06:32.506Z,19.97
2017-05-31T05:07:32.488Z,19.94
2017-05-31T05:08:32.474Z,20.2
2017-05-31T05:09:32.155Z,20.5
2017-05-31T05:10:32.435Z,20.69
2017-05-31T05:11:32.424Z,20.93
2017-05-31T05:12:32.403Z,21
2017-05-31T05:13:32.390Z,21.12
2017-05-31T05:14:32.367Z,21.15
2017-05-31T05:15:32.056Z,21.36
2017-05-31T05:16:32.087Z,21.4
2017-05-31T05:17:32.317Z,21.28
2017-05-31T05:18:32.300Z,21.3
2017-05-31T05:19:32.289Z,21.13
2017-05-31T05:20:32.274Z,21.03
2017-05-31T05:21:32.274Z,20.94
2017-05-31T05:22:32.238Z,20.83
2017-05-31T05:23:32.222Z,20.76
2017-05-31T05:24:32.211Z,20.75
2017-05-31T05:25:32.190Z,20.76
2017-05-31T05:26:32.183Z,20.76
2017-05-31T05:27:32.154Z,20.97
2017-05-31T05:28:32.142Z,21.08
2017-05-31T05:29:32.121Z,21.16
2017-05-31T05:30:32.109Z,21.18
2017-05-31T05:31:31.794Z,21.38
2017-05-31T05:32:32.143Z,21.51
2017-05-31T05:33:32.072Z,21.55
2017-05-31T05:34:31.753Z,21.53
2017-05-31T05:35:32.034Z,21.71
2017-05-31T05:36:32.070Z,21.81
2017-05-31T05:37:32.015Z,21.94
2017-05-31T05:38:31.681Z,22.26
2017-05-31T05:39:31.979Z,22.41
2017-05-31T05:40:31.966Z,22.7
2017-05-31T05:41:31.962Z,22.56
2017-05-31T05:42:31.923Z,22.48
2017-05-31T05:43:31.608Z,22.33
2017-05-31T05:44:31.903Z,22.38
2017-05-31T05:45:31.576Z,22.59
2017-05-31T05:46:31.872Z,22.61
2017-05-31T05:47:31.861Z,22.74
2017-05-31T05:48:31.851Z,22.72
2017-05-31T05:49:31.826Z,22.63
2017-05-31T05:50:31.809Z,22.6
2017-05-31T05:51:31.790Z,22.57
2017-05-31T05:52:31.775Z,22.41
2017-05-31T05:53:31.765Z,22.51
2017-05-31T05:54:31.753Z,22.52
2017-05-31T05:55:31.731Z,22.69
2017-05-31T05:56:31.720Z,22.76
2017-05-31T05:57:31.703Z,22.82
2017-05-31T05:58:31.693Z,23
2017-05-31T05:59:31.671Z,23.15
2017-05-31T06:00:31.667Z,23.18
2017-05-31T06:01:31.651Z,23.23
2017-05-31T06:02:31.633Z,23.34
2017-05-31T06:03:31.615Z,23.22
2017-05-31T06:04:31.610Z,23.42
2017-05-31T06:05:31.637Z,23.59
2017-05-31T06:06:31.584Z,23.74
2017-05-31T06:07:31.614Z,23.79
2017-05-31T06:08:31.608Z,23.86
2017-05-31T06:09:31.539Z,23.92
2017-05-31T06:10:31.518Z,24.02
2017-05-31T06:11:31.506Z,24.08
2017-05-31T06:12:31.501Z,24.27
2017-05-31T06:13:31.487Z,24.52
2017-05-31T06:14:31.473Z,24.74
2017-05-31T06:15:31.455Z,24.93
2017-05-31T06:16:31.455Z,25.01
2017-05-31T06:17:31.430Z,24.97
2017-05-31T06:18:31.423Z,25.01
2017-05-31T06:19:31.119Z,25.01
2017-05-31T06:20:31.455Z,24.98
2017-05-31T06:21:31.387Z,24.99
2017-05-31T06:22:31.371Z,24.99
2017-05-31T06:23:31.357Z,24.99
2017-05-31T06:24:31.600Z,25.17
2017-05-31T06:25:31.393Z,25.31
2017-05-31T06:26:31.327Z,25.34
2017-05-31T06:27:31.323Z,25.41
2017-05-31T06:28:31.300Z,25.57
2017-05-31T06:29:31.294Z,25.66
2017-05-31T06:30:31.281Z,25.75
2017-05-31T06:31:31.263Z,25.83
2017-05-31T06:32:31.249Z,25.69
2017-05-31T06:33:31.255Z,25.96
2017-05-31T06:34:31.285Z,25.93
2017-05-31T06:35:31.225Z,25.83
2017-05-31T06:36:31.212Z,25.79
2017-05-31T06:37:30.894Z,25.76
2017-05-31T06:38:31.190Z,25.76
2017-05-31T06:39:31.181Z,25.76
2017-05-31T06:40:31.166Z,25.75
2017-05-31T06:41:31.152Z,26
2017-05-31T06:42:31.143Z,25.94
2017-05-31T06:43:31.136Z,26.01
2017-05-31T06:44:31.130Z,26.01
2017-05-31T06:45:31.113Z,26.01
2017-05-31T06:46:31.108Z,26.03
2017-05-31T06:47:31.103Z,26.03
2017-05-31T06:48:31.097Z,26.23
2017-05-31T06:49:31.081Z,26.24
2017-05-31T06:50:31.062Z,26.2
2017-05-31T06:51:31.054Z,26.08
2017-05-31T06:52:31.051Z,26.11
2017-05-31T06:53:31.051Z,26.36
2017-05-31T06:54:31.028Z,26.51
2017-05-31T06:55:30.720Z,26.41
2017-05-31T06:56:31.008Z,26.44
2017-05-31T06:57:30.994Z,26.38
2017-05-31T06:58:30.981Z,26.53
2017-05-31T06:59:30.974Z,26.59
2017-05-31T07:00:30.960Z,26.72
2017-05-31T07:01:30.957Z,27.01
2017-05-31T07:02:30.944Z,27.12
2017-05-31T07:03:30.933Z,27.06
2017-05-31T07:04:30.918Z,27.16
2017-05-31T07:05:30.914Z,27.23
2017-05-31T07:06:30.953Z,27.34
2017-05-31T07:07:30.894Z,27.5
2017-05-31T07:08:30.887Z,27.66
2017-05-31T07:09:30.878Z,27.34
2017-05-31T07:10:30.868Z,27.39
2017-05-31T07:11:30.855Z,27.09
2017-05-31T07:12:30.846Z,27.01
2017-05-31T07:13:30.839Z,26.98
2017-05-31T07:14:30.835Z,27.03
2017-05-31T07:15:30.820Z,26.68
2017-05-31T07:16:30.817Z,26.51
2017-05-31T07:17:30.802Z,26.65
2017-05-31T07:18:30.847Z,26.61
2017-05-31T07:19:30.787Z,26.59
2017-05-31T07:20:30.778Z,26.61
2017-05-31T07:21:30.764Z,26.64
2017-05-31T07:22:30.758Z,26.78
2017-05-31T07:23:30.751Z,26.97
2017-05-31T07:24:30.740Z,27.2
2017-05-31T07:25:30.728Z,27.43
2017-05-31T07:26:30.713Z,27.81
2017-05-31T07:27:30.713Z,28.05
2017-05-31T07:28:30.701Z,28.25
2017-05-31T07:29:30.694Z,28.02
2017-05-31T07:30:30.679Z,27.74
2017-05-31T07:31:30.785Z,27.34
2017-05-31T07:32:30.680Z,27.28
2017-05-31T07:33:30.656Z,27.39
2017-05-31T07:34:30.651Z,27.52
2017-05-31T07:35:30.638Z,27.72
2017-05-31T07:36:30.625Z,27.35
2017-05-31T07:37:30.621Z,27.05
2017-05-31T07:38:30.618Z,26.86
2017-05-31T07:39:30.599Z,27.02
2017-05-31T07:40:30.598Z,27.21
2017-05-31T07:41:30.583Z,27.23
2017-05-31T07:42:30.577Z,27.28
2017-05-31T07:43:30.567Z,27.45
2017-05-31T07:44:30.560Z,27.66
2017-05-31T07:45:30.546Z,27.81
2017-05-31T07:46:30.589Z,28.02
2017-05-31T07:47:30.530Z,28.28
2017-05-31T07:48:30.522Z,28.39
2017-05-31T07:49:30.512Z,28.61
2017-05-31T07:50:30.510Z,28.64
2017-05-31T07:51:30.499Z,28.67
2017-05-31T07:52:30.486Z,28.72
2017-05-31T07:53:30.485Z,28.85
2017-05-31T07:54:30.534Z,28.98
2017-05-31T07:55:30.520Z,29.1
2017-05-31T07:56:30.506Z,29.17
2017-05-31T07:57:30.456Z,29.26
2017-05-31T07:58:30.452Z,29.12
2017-05-31T07:59:30.469Z,29.02
2017-05-31T08:00:30.430Z,29.07
2017-05-31T08:01:30.437Z,29.18
2017-05-31T08:02:30.411Z,29.07
2017-05-31T08:03:30.403Z,29.21
2017-05-31T08:04:30.399Z,29.3
2017-05-31T08:05:30.388Z,29.57
2017-05-31T08:06:30.390Z,29.66
2017-05-31T08:07:30.376Z,29.6
2017-05-31T08:08:30.370Z,29.25
2017-05-31T08:09:30.063Z,28.57
2017-05-31T08:10:30.357Z,28.11
2017-05-31T08:11:30.346Z,27.88
2017-05-31T08:12:30.341Z,27.77
2017-05-31T08:13:30.332Z,27.81
2017-05-31T08:14:30.322Z,28.01
2017-05-31T08:15:30.317Z,28.03
2017-05-31T08:16:30.308Z,28.09
2017-05-31T08:17:30.304Z,27.91
2017-05-31T08:18:30.296Z,27.58
2017-05-31T08:19:30.287Z,27.25
2017-05-31T08:20:30.347Z,26.91
2017-05-31T08:21:30.279Z,26.87
2017-05-31T08:22:30.269Z,26.75
2017-05-31T08:23:30.248Z,26.46
2017-05-31T08:24:30.244Z,26.12
2017-05-31T08:25:30.225Z,25.79
2017-05-31T08:26:30.272Z,25.66
2017-05-31T08:27:30.212Z,25.6
2017-05-31T08:28:30.196Z,25.78
2017-05-31T08:29:30.190Z,26.31
2017-05-31T08:30:30.172Z,26.91
2017-05-31T08:31:30.170Z,27.48
2017-05-31T08:32:30.158Z,28.06
2017-05-31T08:33:30.140Z,28.6
2017-05-31T08:34:30.144Z,29.03
2017-05-31T08:35:29.819Z,29.45
2017-05-31T08:36:30.170Z,29.91
2017-05-31T08:37:30.107Z,30.22
2017-05-31T08:38:29.856Z,29.86
2017-05-31T08:39:29.786Z,29.3
2017-05-31T08:40:29.783Z,28.6
2017-05-31T08:41:30.074Z,28.3
2017-05-31T08:42:30.061Z,28.25
2017-05-31T08:43:30.050Z,28.8
2017-05-31T08:44:30.047Z,29.14
2017-05-31T08:45:30.056Z,29.55
2017-05-31T08:46:29.759Z,29.69
2017-05-31T08:47:30.033Z,30.11
2017-05-31T08:48:30.021Z,30.36
2017-05-31T08:49:30.006Z,30.76
2017-05-31T08:50:30.007Z,30.48
2017-05-31T08:51:29.995Z,30
2017-05-31T08:52:29.989Z,29.63
2017-05-31T08:53:29.979Z,29.52
2017-05-31T08:54:29.969Z,29.44
2017-05-31T08:55:29.961Z,29.17
2017-05-31T08:56:30.007Z,28.85
2017-05-31T08:57:29.664Z,28.42
2017-05-31T08:58:29.940Z,28.3
2017-05-31T08:59:29.934Z,28.58
2017-05-31T09:00:29.619Z,28.3
2017-05-31T09:01:29.914Z,27.62
2017-05-31T09:02:29.912Z,27.02
2017-05-31T09:03:29.592Z,26.6
2017-05-31T09:04:29.884Z,26.32
2017-05-31T09:05:29.875Z,26.41
2017-05-31T09:06:29.866Z,26.49
2017-05-31T09:07:29.852Z,26.61
2017-05-31T09:08:29.841Z,26.5
2017-05-31T09:09:29.835Z,26.61
2017-05-31T09:10:29.823Z,26.69
2017-05-31T09:11:29.816Z,26.46
2017-05-31T09:12:29.802Z,26.35
2017-05-31T09:13:29.793Z,26.2
2017-05-31T09:14:29.780Z,26.06
2017-05-31T09:15:29.481Z,25.74
2017-05-31T09:16:29.463Z,25.6
2017-05-31T09:17:29.814Z,25.38
2017-05-31T09:18:29.731Z,25.19
2017-05-31T09:19:29.720Z,25.05
2017-05-31T09:20:29.720Z,25.09
2017-05-31T09:21:29.694Z,24.97
2017-05-31T09:22:29.687Z,24.84
2017-05-31T09:23:29.671Z,24.77
2017-05-31T09:24:29.654Z,24.7
2017-05-31T09:25:29.645Z,24.71
2017-05-31T09:26:29.631Z,24.7
2017-05-31T09:27:29.617Z,24.71
2017-05-31T09:28:29.622Z,24.71
2017-05-31T09:29:29.598Z,25.01
2017-05-31T09:30:29.585Z,25.12
2017-05-31T09:31:29.566Z,25.12
2017-05-31T09:32:29.558Z,25.11
2017-05-31T09:33:29.550Z,25.09
2017-05-31T09:34:29.795Z,25.05
2017-05-31T09:35:29.512Z,25.16
2017-05-31T09:36:29.505Z,25.71
2017-05-31T09:37:29.196Z,26.29
2017-05-31T09:38:29.485Z,26.73
2017-05-31T09:39:29.460Z,26.97
2017-05-31T09:40:29.181Z,27.01
2017-05-31T09:41:29.458Z,26.97
2017-05-31T09:42:29.431Z,26.9
2017-05-31T09:43:29.411Z,26.84
2017-05-31T09:44:29.401Z,26.79
2017-05-31T09:45:29.389Z,26.71
2017-05-31T09:46:29.385Z,26.75
2017-05-31T09:47:29.367Z,27.09
2017-05-31T09:48:29.356Z,27.46
2017-05-31T09:49:29.343Z,27.98
2017-05-31T09:50:29.327Z,28.38
2017-05-31T09:51:29.324Z,28.79
2017-05-31T09:52:29.312Z,29.1
2017-05-31T09:53:29.016Z,29.39
2017-05-31T09:54:29.296Z,29.69
2017-05-31T09:55:29.336Z,29.97
2017-05-31T09:56:29.279Z,30.18
2017-05-31T09:57:29.267Z,30.07
2017-05-31T09:58:29.262Z,30.03
2017-05-31T09:59:29.255Z,29.88
2017-05-31T10:00:29.247Z,29.7
2017-05-31T10:01:28.987Z,29.54
2017-05-31T10:02:28.927Z,29.42
2017-05-31T10:03:29.224Z,29.47
2017-05-31T10:04:29.215Z,29.15
2017-05-31T10:05:28.953Z,28.65
2017-05-31T10:06:29.192Z,28.11
2017-05-31T10:07:29.199Z,27.87
2017-05-31T10:08:29.186Z,27.72
2017-05-31T10:09:29.174Z,27.65
2017-05-31T10:10:29.164Z,27.5
2017-05-31T10:11:29.220Z,27.21
2017-05-31T10:12:29.154Z,27.09
2017-05-31T10:13:29.218Z,26.83
2017-05-31T10:14:29.129Z,26.68
2017-05-31T10:15:29.120Z,26.61
2017-05-31T10:16:29.106Z,26.47
2017-05-31T10:17:29.099Z,26.32
2017-05-31T10:18:29.084Z,26.04
2017-05-31T10:19:29.068Z,25.75
2017-05-31T10:20:29.072Z,25.45
2017-05-31T10:21:29.054Z,25.35
2017-05-31T10:22:29.033Z,25.48
2017-05-31T10:23:29.031Z,25.59
2017-05-31T10:24:29.016Z,25.71
2017-05-31T10:25:29.001Z,25.76
2017-05-31T10:26:28.700Z,25.46
2017-05-31T10:27:28.971Z,25.38
2017-05-31T10:28:28.962Z,25.22
2017-05-31T10:29:28.967Z,25.11
2017-05-31T10:30:28.939Z,25.16
2017-05-31T10:31:28.933Z,25.72
2017-05-31T10:32:28.908Z,26.17
2017-05-31T10:33:28.592Z,26.71
2017-05-31T10:34:28.941Z,27.08
2017-05-31T10:35:28.875Z,27.33
2017-05-31T10:36:28.866Z,27.77
2017-05-31T10:37:28.859Z,28.2
2017-05-31T10:38:28.588Z,28.57
2017-05-31T10:39:28.831Z,28.89
2017-05-31T10:40:28.821Z,29.08
2017-05-31T10:41:28.818Z,29.25
2017-05-31T10:42:28.816Z,29.54
2017-05-31T10:43:28.791Z,29.63
2017-05-31T10:44:28.783Z,29.6
2017-05-31T10:45:28.779Z,29.36
2017-05-31T10:46:28.778Z,29.05
2017-05-31T10:47:28.760Z,28.5
2017-05-31T10:48:28.762Z,27.88
2017-05-31T10:49:28.743Z,27.25
2017-05-31T10:50:28.784Z,26.49
2017-05-31T10:51:28.726Z,26
2017-05-31T10:52:28.707Z,25.61
2017-05-31T10:53:28.706Z,25.36
2017-05-31T10:54:28.700Z,25.16
2017-05-31T10:55:28.679Z,24.92
2017-05-31T10:56:28.671Z,24.74
2017-05-31T10:57:28.658Z,24.48
2017-05-31T10:58:28.699Z,24.29
2017-05-31T10:59:28.636Z,24.11
2017-05-31T11:00:28.613Z,24.04
2017-05-31T11:01:28.610Z,24.04
2017-05-31T11:02:28.819Z,23.9
2017-05-31T11:03:28.577Z,23.79
2017-05-31T11:04:28.568Z,23.79
2017-05-31T11:05:28.541Z,23.69
2017-05-31T11:06:28.531Z,23.67
2017-05-31T11:07:28.525Z,23.69
2017-05-31T11:08:28.507Z,23.81
2017-05-31T11:09:28.502Z,24.06
2017-05-31T11:10:28.474Z,24.49
2017-05-31T11:11:28.463Z,24.94
2017-05-31T11:12:28.450Z,25.26
2017-05-31T11:13:28.439Z,25.49
2017-05-31T11:14:28.118Z,25.61
2017-05-31T11:15:28.412Z,25.53
2017-05-31T11:16:28.387Z,25.44
2017-05-31T11:17:28.382Z,25.48
2017-05-31T11:18:28.369Z,25.45
2017-05-31T11:19:28.355Z,25.39
2017-05-31T11:20:28.339Z,25.35
2017-05-31T11:21:28.321Z,25.29
2017-05-31T11:22:28.308Z,25.29
2017-05-31T11:23:28.299Z,25.26
2017-05-31T11:24:28.294Z,25.3
2017-05-31T11:25:28.262Z,25.23
2017-05-31T11:26:28.250Z,25.26
2017-05-31T11:27:28.235Z,25.3
2017-05-31T11:28:28.213Z,25.16
2017-05-31T11:29:28.203Z,25.26
2017-05-31T11:30:28.184Z,25.14
2017-05-31T11:31:28.177Z,25.07
2017-05-31T11:32:28.214Z,25.07
2017-05-31T11:33:28.138Z,24.97
2017-05-31T11:34:28.125Z,25.01
2017-05-31T11:35:28.172Z,25.08
2017-05-31T11:36:27.799Z,25.16
2017-05-31T11:37:28.082Z,25.26
2017-05-31T11:38:28.072Z,25.27
2017-05-31T11:39:28.261Z,25.2
2017-05-31T11:40:28.039Z,25.22
2017-05-31T11:41:28.028Z,25.08
2017-05-31T11:42:28.054Z,25.04
2017-05-31T11:43:27.988Z,24.92
2017-05-31T11:44:27.985Z,25.01
2017-05-31T11:45:27.962Z,25.07
2017-05-31T11:46:27.943Z,25.11
2017-05-31T11:47:27.928Z,25.07
2017-05-31T11:48:27.915Z,25.22
2017-05-31T11:49:27.893Z,25.14
2017-05-31T11:50:27.886Z,25.23
2017-05-31T11:51:27.873Z,25.3
2017-05-31T11:52:27.849Z,25.31
2017-05-31T11:53:27.838Z,25.29
2017-05-31T11:54:27.817Z,25.24
2017-05-31T11:55:27.808Z,25.29
2017-05-31T11:56:27.793Z,25.26
2017-05-31T11:57:27.791Z,25.12
2017-05-31T11:58:27.763Z,25.09
2017-05-31T11:59:27.450Z,25.12
2017-05-31T12:00:27.732Z,25.08
2017-05-31T12:01:27.709Z,25.02
2017-05-31T12:02:27.414Z,25.05
2017-05-31T12:03:28.015Z,25.04
2017-05-31T12:04:27.676Z,25.05
2017-05-31T12:05:27.374Z,24.98
2017-05-31T12:06:27.357Z,24.99
2017-05-31T12:07:27.664Z,24.82
2017-05-31T12:08:27.309Z,24.46
2017-05-31T12:09:27.619Z,24.27
2017-05-31T12:10:27.585Z,24.06
2017-05-31T12:11:27.611Z,24.05
2017-05-31T12:12:27.556Z,23.97
2017-05-31T12:13:27.559Z,23.71
2017-05-31T12:14:27.520Z,23.56
2017-05-31T12:15:27.512Z,23.47
2017-05-31T12:16:27.549Z,23.21
2017-05-31T12:17:27.484Z,23.14
2017-05-31T12:18:27.452Z,23.06
2017-05-31T12:19:27.443Z,22.93
2017-05-31T12:20:27.429Z,22.84
2017-05-31T12:21:27.412Z,22.74
2017-05-31T12:22:27.401Z,22.61
2017-05-31T12:23:27.374Z,22.66
2017-05-31T12:24:27.403Z,22.64
2017-05-31T12:25:27.087Z,22.48
2017-05-31T12:26:27.321Z,22.49
2017-05-31T12:27:27.000Z,22.44
2017-05-31T12:28:27.291Z,22.52
2017-05-31T12:29:27.301Z,22.45
2017-05-31T12:30:27.292Z,22.51
2017-05-31T12:31:27.230Z,22.33
2017-05-31T12:32:27.219Z,22.36
2017-05-31T12:33:27.199Z,22.29
2017-05-31T12:34:27.178Z,22.3
2017-05-31T12:35:27.166Z,22.15
2017-05-31T12:36:26.842Z,22.14
2017-05-31T12:37:27.127Z,22.04
2017-05-31T12:38:27.106Z,22.02
2017-05-31T12:39:27.098Z,21.99
2017-05-31T12:40:27.089Z,21.94
2017-05-31T12:41:27.061Z,21.93
2017-05-31T12:42:27.339Z,21.93
2017-05-31T12:43:27.083Z,21.91
2017-05-31T12:44:27.009Z,21.96
2017-05-31T12:45:26.990Z,21.94
2017-05-31T12:46:26.967Z,21.94
2017-05-31T12:47:26.956Z,21.93
2017-05-31T12:48:26.946Z,21.91
2017-05-31T12:49:26.977Z,21.93
2017-05-31T12:50:26.900Z,21.83
2017-05-31T12:51:26.884Z,21.82
2017-05-31T12:52:26.866Z,21.71
2017-05-31T12:53:26.845Z,21.74
2017-05-31T12:54:26.832Z,21.83
2017-05-31T12:55:26.813Z,21.7